Latest Weather Observations for Munglinup West

IDW60801

Issued at 10:13 pm WST Monday 29 November 2021 (issued every 10 minutes, with the page automatically refreshed every 10 minutes)

About weather observations | Map of weather stations | Latest weather observations for WA | Other Formats
Station Details ID: 012044 Name: MUNGLINUP WEST Lat: -33.55 Lon: 120.70 Height: 220.0 m
Data from the previous 72 hours. | See also: Recent months at Munglinup West
Date/Time
WST
Temp
°C
App
Temp
°C
Dew
Point
°C
Rel
Hum
%
Delta-T
°C
Wind Press
QNH
hPa
Press
MSL
hPa
Rain since
9am
mm
Dir  Spd
km/h
Gust
km/h
Spd
kts
Gust
kts
29/10:00pm 13.6 11.9 12.3 92 0.7 S 13 20 7 11 1014.6 1014.1 0.0
29/09:30pm 15.1 12.3 11.5 79 2.0 S 17 24 9 13 1014.6 1014.1 0.0
29/09:00pm 15.3 11.9 11.3 77 2.2 SSW 20 32 11 17 1014.7 1014.2 0.0
29/08:30pm 15.4 11.2 11.2 76 2.3 S 24 33 13 18 1014.5 1014.0 0.0
29/08:00pm 15.5 11.8 11.5 77 2.2 SSW 22 37 12 20 1014.2 1013.6 0.0
29/07:30pm 15.7 11.2 11.3 75 2.4 SSW 26 37 14 20 1013.8 1013.2 0.0
29/07:00pm 15.6 12.0 11.8 78 2.1 SSW 22 37 12 20 1013.4 1012.8 0.0
29/06:30pm 16.7 11.9 11.6 72 2.8 SSW 28 41 15 22 1012.9 1012.3 0.0
29/06:13pm 17.2 12.4 11.7 70 3.0 SSW 28 46 15 25 1012.7 1012.1 0.0
29/06:00pm 17.6 12.0 11.6 68 3.3 SSW 32 43 17 23 1012.8 1012.2 0.0
29/05:30pm 17.9 14.0 13.2 74 2.7 SSW 26 37 14 20 1012.3 1011.7 0.0
29/05:00pm 18.4 13.8 12.4 68 3.4 SSW 28 37 15 20 1012.0 1011.4 0.0
29/04:30pm 19.8 14.5 12.6 63 4.1 S 32 43 17 23 1011.6 1011.0 0.0
29/04:00pm 21.2 16.6 12.3 57 5.1 S 28 39 15 21 1011.5 1010.9 0.0
29/03:36pm 22.5 17.6 12.7 54 5.6 SSW 30 48 16 26 1011.4 1010.8 0.0
29/03:30pm 21.5 16.1 12.1 55 5.3 SSW 32 48 17 26 1011.4 1010.8 0.0
29/03:28pm 21.8 16.7 11.8 53 5.7 SSW 30 48 16 26 1011.3 1010.7 0.0
29/03:00pm 21.9 16.9 12.2 54 5.5 S 30 41 16 22 1011.3 1010.7 0.0
29/02:30pm 22.4 17.7 12.1 52 5.9 SSW 28 43 15 23 1011.2 1010.6 0.0
29/02:00pm 23.6 19.3 12.0 48 6.6 S 26 39 14 21 1011.1 1010.5 0.0
29/01:30pm 23.9 20.1 12.5 49 6.6 S 24 37 13 20 1011.2 1010.6 0.0
29/01:00pm 24.7 21.3 12.6 47 7.0 S 22 43 12 23 1011.0 1010.4 0.0
29/12:30pm 25.3 22.1 11.8 43 7.8 SSW 20 30 11 16 1011.3 1010.7 0.0
29/12:00pm 25.3 22.2 11.5 42 7.9 WSW 19 28 10 15 1011.5 1010.9 0.0
29/11:30am 24.0 20.6 11.3 45 7.2 WSW 20 35 11 19 1011.8 1011.2 0.0
29/11:00am 23.3 20.1 12.0 49 6.5 SW 20 37 11 20 1011.9 1011.3 0.0
29/10:30am 22.2 19.1 12.2 53 5.7 SW 20 32 11 17 1012.3 1011.7 0.0
29/10:00am 21.7 18.9 13.1 58 5.0 SW 20 32 11 17 1012.7 1012.1 0.0
29/09:30am 21.4 18.5 12.8 58 4.9 SW 20 30 11 16 1012.8 1012.2 0.0
29/09:00am 18.9 16.2 12.9 68 3.4 SW 19 26 10 14 1013.0 1012.4 0.0
29/08:30am 18.4 15.6 13.3 72 2.9 SW 20 28 11 15 1012.9 1012.3 0.0
29/08:00am 17.9 14.7 13.0 73 2.8 SW 22 30 12 16 1012.9 1012.3 0.0
29/07:30am 17.8 14.7 13.3 75 2.6 SW 22 30 12 16 1012.7 1012.1 0.0
29/07:00am 17.3 14.3 13.6 79 2.1 SW 22 30 12 16 1012.6 1012.0 0.0
29/06:30am 16.5 14.0 14.2 86 1.3 SSW 20 30 11 16 1012.5 1011.9 0.0
29/06:00am 16.1 13.5 13.9 87 1.3 SSW 20 30 11 16 1012.4 1011.8 0.0
29/05:30am 16.2 14.0 14.4 89 1.0 SW 19 24 10 13 1012.1 1011.5 0.0
29/05:00am 16.2 14.7 14.2 88 1.1 SW 15 22 8 12 1011.6 1011.0 0.0
29/04:30am 16.2 14.3 14.2 88 1.1 SW 17 24 9 13 1011.6 1011.0 0.0
29/04:00am 16.3 13.9 14.3 88 1.2 SW 20 28 11 15 1011.4 1010.8 0.0
29/03:30am 16.5 14.1 14.3 87 1.3 SW 20 30 11 16 1011.1 1010.5 0.0
29/03:00am 16.8 14.6 14.8 88 1.2 SW 20 28 11 15 1010.9 1010.3 0.0
29/02:30am 16.8 14.2 15.0 89 1.1 SW 22 30 12 16 1011.0 1010.4 0.0
29/02:00am 16.9 15.0 15.1 89 1.1 SW 19 26 10 14 1011.1 1010.5 0.0
29/01:30am 17.0 14.4 15.0 88 1.2 SW 22 33 12 18 1011.2 1010.6 0.0
29/01:00am 17.2 14.8 15.4 89 1.1 SW 22 32 12 17 1011.4 1010.8 0.0
29/12:30am 17.3 14.6 15.5 89 1.1 SW 24 32 13 17 1011.6 1011.0 0.0
29/12:00am 17.4 14.7 15.6 89 1.1 SW 24 33 13 18 1011.7 1011.1 0.0
 
Date/Time
WST
Temp
°C
App
Temp
°C
Dew
Point
°C
Rel
Hum
%
Delta-T
°C
Wind Press
QNH
hPa
Press
MSL
hPa
Rain since
9am
mm
Dir  Spd
km/h
Gust
km/h
Spd
kts
Gust
kts
28/11:30pm 17.4 14.7 15.7 90 1.0 SW 24 32 13 17 1011.9 1011.3 0.0
28/11:00pm 17.4 14.7 15.7 90 1.0 SW 24 32 13 17 1012.0 1011.4 0.0
28/10:30pm 17.7 15.6 15.1 85 1.5 WSW 20 28 11 15 1012.0 1011.4 0.0
28/10:00pm 18.7 16.2 13.6 72 2.9 WSW 19 26 10 14 1012.1 1011.5 0.0
28/09:30pm 20.2 16.8 12.4 61 4.4 SW 22 33 12 18 1011.9 1011.3 0.0
28/09:00pm 21.4 18.2 12.0 55 5.3 SW 20 28 11 15 1011.5 1010.9 0.0
28/08:56pm 21.8 18.2 11.8 53 5.7 WSW 22 35 12 19 1011.6 1011.0 0.0
28/08:30pm 26.9 22.1 4.6 24 11.4 ENE 19 22 10 12 1010.0 1009.4 0.0
28/08:00pm 26.2 22.2 6.8 29 10.3 ENE 17 22 9 12 1009.9 1009.3 0.0
28/07:30pm 27.6 23.7 6.9 27 11.1 E 17 20 9 11 1010.0 1009.4 0.0
28/07:00pm 28.8 25.1 6.2 24 12.1 E 15 20 8 11 1010.2 1009.5 0.0
28/06:30pm 30.6 26.9 6.5 22 13.0 ESE 15 20 8 11 1010.3 1009.6 0.0
28/06:00pm 32.3 27.1 5.7 19 14.3 ESE 22 33 12 18 1010.0 1009.4 0.0
28/05:30pm 34.1 28.9 3.8 15 16.0 SSE 20 33 11 18 1009.9 1009.3 0.0
28/05:00pm 36.2 33.1 1.1 11 18.0 WNW 7 13 4 7 1009.8 1009.2 0.0
28/04:30pm 36.6 32.4 1.4 11 18.1 NW 13 24 7 13 1010.2 1009.5 0.0
28/04:00pm 36.8 33.9 1.5 11 18.2 NNW 6 9 3 5 1010.6 1009.9 0.0
28/03:30pm 36.0 31.7 0.9 11 17.9 N 13 24 7 13 1011.0 1010.4 0.0
28/03:00pm 36.6 32.4 1.4 11 18.1 NNW 13 30 7 16 1011.5 1010.9 0.0
28/02:30pm 36.8 32.6 1.5 11 18.2 N 13 33 7 18 1011.9 1011.3 0.0
28/02:00pm 36.1 33.1 2.2 12 17.6 NNW 7 17 4 9 1012.4 1011.8 0.0
28/01:30pm 35.9 31.4 2.1 12 17.5 N 15 24 8 13 1012.7 1012.1 0.0
28/01:00pm 35.1 30.9 1.5 12 17.2 NNE 13 22 7 12 1013.3 1012.7 0.0
28/12:30pm 36.3 32.2 2.4 12 17.7 NNE 13 30 7 16 1013.8 1013.2 0.0
28/12:00pm 35.0 31.1 1.4 12 17.1 NNE 11 22 6 12 1014.4 1013.8 0.0
28/11:30am 34.8 30.7 2.3 13 16.8 N 13 24 7 13 1014.8 1014.3 0.0
28/11:00am 34.0 29.6 2.8 14 16.2 N 15 30 8 16 1015.4 1014.8 0.0
28/10:30am 32.9 28.3 3.8 16 15.2 NNW 17 30 9 16 1015.9 1015.3 0.0
28/10:00am 32.1 27.7 4.8 18 14.5 N 17 26 9 14 1016.3 1015.7 0.0
28/09:30am 30.5 25.9 5.7 21 13.2 NNW 19 26 10 14 1016.6 1016.0 0.0
28/09:00am 29.2 24.7 6.0 23 12.3 N 19 28 10 15 1017.0 1016.4 0.0
28/08:30am 27.4 22.9 6.2 26 11.2 N 19 28 10 15 1017.2 1016.6 0.0
28/08:00am 25.7 20.7 6.3 29 10.1 N 22 32 12 17 1017.6 1017.0 0.0
28/07:30am 24.5 19.9 6.3 31 9.5 N 20 28 11 15 1017.6 1017.0 0.0
28/07:00am 22.6 17.7 6.8 36 8.2 N 22 35 12 19 1017.7 1017.1 0.0
28/06:30am 20.3 15.1 7.3 43 6.7 N 24 33 13 18 1017.7 1017.1 0.0
28/06:00am 18.3 14.0 7.7 50 5.4 N 20 32 11 17 1017.7 1017.1 0.0
28/05:30am 16.9 12.6 7.8 55 4.6 NNE 20 30 11 16 1017.6 1017.0 0.0
28/05:00am 16.4 12.1 7.9 57 4.3 NNE 20 32 11 17 1017.4 1016.8 0.0
28/04:30am 16.1 11.2 8.3 60 4.0 NNE 24 32 13 17 1017.2 1016.6 0.0
28/04:00am 15.7 11.5 8.4 62 3.7 NNE 20 32 11 17 1017.0 1016.4 0.0
28/03:30am 15.6 11.1 8.6 63 3.6 NNE 22 32 12 17 1017.0 1016.4 0.0
28/03:00am 15.7 11.2 8.7 63 3.6 NNE 22 32 12 17 1017.1 1016.5 0.0
28/02:30am 16.0 12.0 9.0 63 3.6 NNE 20 26 11 14 1017.2 1016.6 0.0
28/02:00am 16.2 12.2 8.9 62 3.8 NNE 20 30 11 16 1017.2 1016.6 0.0
28/01:30am 16.2 11.9 9.2 63 3.7 NE 22 30 12 16 1017.3 1016.7 0.0
28/01:00am 16.4 12.5 9.3 63 3.7 NE 20 28 11 15 1017.5 1016.9 0.0
28/12:30am 16.7 12.4 9.4 62 3.8 NE 22 32 12 17 1017.7 1017.1 0.0
28/12:00am 17.3 12.7 9.7 61 4.0 NE 24 33 13 18 1017.9 1017.3 0.0
 
Date/Time
WST
Temp
°C
App
Temp
°C
Dew
Point
°C
Rel
Hum
%
Delta-T
°C
Wind Press
QNH
hPa
Press
MSL
hPa
Rain since
9am
mm
Dir  Spd
km/h
Gust
km/h
Spd
kts
Gust
kts
27/11:30pm 17.6 13.1 10.0 61 4.1 ENE 24 32 13 17 1018.1 1017.5 0.0
27/11:00pm 17.9 13.1 10.3 61 4.1 ENE 26 35 14 19 1018.5 1018.0 0.0
27/10:30pm 17.8 13.8 10.4 62 4.0 ENE 22 32 12 17 1018.6 1018.1 0.0
27/10:00pm 17.8 14.3 10.9 64 3.8 ENE 20 30 11 16 1018.8 1018.3 0.0
27/09:30pm 18.2 14.8 11.3 64 3.8 ENE 20 28 11 15 1018.9 1018.4 0.0
27/09:00pm 18.7 15.4 11.5 63 4.0 E 20 28 11 15 1019.0 1018.5 0.0
27/08:30pm 19.3 15.9 11.3 60 4.4 E 20 28 11 15 1019.1 1018.6 0.0
27/08:00pm 19.6 16.4 11.1 58 4.7 E 19 24 10 13 1018.9 1018.4 0.0
27/07:30pm 20.7 17.7 12.1 58 4.9 ESE 19 24 10 13 1018.9 1018.4 0.0
27/07:00pm 22.1 19.1 12.1 53 5.7 ESE 19 26 10 14 1018.7 1018.2 0.0
27/06:30pm 23.6 20.4 11.3 46 7.0 ESE 19 24 10 13 1018.7 1018.2 0.0
27/06:00pm 25.0 20.4 9.7 38 8.5 ESE 24 32 13 17 1018.7 1018.2 0.0
27/05:30pm 26.8 22.1 9.2 33 9.8 ESE 24 32 13 17 1018.5 1018.0 0.0
27/05:00pm 27.5 21.7 9.3 32 10.1 ESE 30 37 16 20 1018.3 1017.7 0.0
27/04:30pm 28.8 23.4 9.5 30 10.9 ESE 28 37 15 20 1018.1 1017.5 0.0
27/04:00pm 29.5 23.5 8.5 27 11.6 ESE 30 39 16 21 1018.0 1017.4 0.0
27/03:30pm 30.2 25.3 8.6 26 12.1 ESE 24 35 13 19 1018.1 1017.5 0.0
27/03:00pm 30.7 25.3 7.8 24 12.6 ESE 26 37 14 20 1018.2 1017.6 0.0
27/02:30pm 30.8 25.0 7.9 24 12.7 SE 28 37 15 20 1018.4 1017.8 0.0
27/02:00pm 31.5 28.6 6.5 21 13.6 ENE 11 20 6 11 1018.5 1018.0 0.0
27/01:30pm 30.9 29.4 6.7 22 13.1 WSW 4 11 2 6 1019.0 1018.5 0.0
27/01:00pm 31.1 27.4 6.2 21 13.4 E 15 26 8 14 1019.4 1018.9 0.0
27/12:30pm 31.0 28.2 6.8 22 13.2 E 11 20 6 11 1019.6 1019.1 0.0
27/12:00pm 28.9 26.5 6.9 25 11.8 NE 9 19 5 10 1020.1 1019.5 0.0
27/11:30am 28.5 25.9 7.7 27 11.3 NE 11 17 6 9 1020.6 1020.0 0.0
27/11:00am 27.4 25.6 7.8 29 10.6 NNW 7 15 4 8 1021.0 1020.4 0.0
27/10:30am 27.6 25.2 8.5 30 10.5 NNE 11 24 6 13 1021.3 1020.7 0.0
27/10:00am 25.9 23.3 9.3 35 9.1 NNE 13 26 7 14 1021.5 1020.9 0.0
27/09:30am 24.9 22.9 11.5 43 7.7 NNE 13 20 7 11 1021.9 1021.3 0.0
27/09:00am 23.7 21.3 11.4 46 6.9 NNE 15 22 8 12 1022.3 1021.7 0.0
27/08:30am 21.6 18.9 11.6 53 5.6 NNE 17 26 9 14 1022.4 1021.9 0.0
27/08:00am 20.3 17.0 11.5 57 4.9 NNE 20 30 11 16 1022.6 1022.1 0.0
27/07:30am 19.3 15.8 12.1 63 4.0 NE 22 33 12 18 1022.8 1022.3 0.0
27/07:00am 17.1 13.5 12.0 72 2.8 NE 22 33 12 18 1023.0 1022.5 0.0
27/06:30am 15.2 11.2 11.8 80 1.9 NE 24 32 13 17 1022.9 1022.4 0.0
27/06:00am 14.2 10.9 11.5 84 1.5 NE 20 30 11 16 1022.9 1022.4 0.0
27/05:30am 12.9 9.7 11.1 89 1.0 NE 19 28 10 15 1022.8 1022.3 0.0
27/05:00am 12.0 8.6 10.6 91 0.7 NE 19 24 10 13 1022.5 1022.0 0.0
27/04:30am 12.1 8.7 10.7 91 0.7 NE 19 24 10 13 1022.2 1021.6 0.0
27/04:00am 12.4 8.9 11.0 91 0.7 NE 20 28 11 15 1021.9 1021.3 0.0
27/03:30am 12.3 8.9 11.2 93 0.6 NE 20 28 11 15 1021.8 1021.2 0.0
27/03:00am 12.2 9.0 11.1 93 0.6 NE 19 26 10 14 1021.7 1021.1 0.0
27/02:30am 12.2 9.0 11.3 94 0.5 ENE 19 28 10 15 1021.7 1021.1 0.0
27/02:00am 11.9 8.6 11.0 94 0.5 ENE 19 24 10 13 1021.7 1021.1 0.0
27/01:30am 12.2 9.8 11.3 94 0.5 E 15 20 8 11 1021.8 1021.2 0.0
27/01:00am 12.3 10.3 11.4 94 0.5 E 13 19 7 10 1021.9 1021.3 0.0
27/12:30am 12.6 10.7 11.7 94 0.5 E 13 17 7 9 1022.2 1021.6 0.0
27/12:00am 12.8 10.5 11.9 94 0.5 E 15 19 8 10 1022.3 1021.7 0.0
 
Date/Time
WST
Temp
°C
App
Temp
°C
Dew
Point
°C
Rel
Hum
%
Delta-T
°C
Wind Press
QNH
hPa
Press
MSL
hPa
Rain since
9am
mm
Dir  Spd
km/h
Gust
km/h
Spd
kts
Gust
kts
26/11:30pm 12.8 10.5 11.9 94 0.5 E 15 19 8 10 1022.5 1022.0 0.0
26/11:00pm 13.2 11.5 12.3 94 0.5 ESE 13 19 7 10 1022.8 1022.3 0.0
26/10:30pm 13.4 11.3 12.3 93 0.6 ESE 15 20 8 11 1022.8 1022.3 0.0

Other formats

Comma delimited format used in spreadsheet applications
http://www.bom.gov.au/fwo/IDW60801/IDW60801.95644.axf

JavaScript Object Notation format (JSON) in row-major order
http://www.bom.gov.au/fwo/IDW60801/IDW60801.95644.json

Data quality

Most of these data are generated automatically and are frequently updated. Quality checks on data are not normally performed. It is possible for incorrect values to appear. Refer to information at About Latest Weather Observations and please check the disclaimer before using these data.